createdAt,value
2022-09-30T00:00:01.550Z,100
2022-09-30T00:05:02.128Z,99.88
2022-09-30T00:10:01.266Z,99.92
2022-09-30T00:15:01.922Z,99.54
2022-09-30T00:20:01.938Z,99.37
2022-09-30T00:25:02.104Z,99.82
2022-09-30T00:30:01.579Z,100.13
2022-09-30T00:35:01.314Z,100.01
2022-09-30T00:40:01.803Z,97.75
2022-09-30T00:45:01.733Z,97.47
2022-09-30T00:50:01.891Z,97.46
2022-09-30T00:55:01.713Z,97.48
2022-09-30T01:00:01.446Z,97.39
2022-09-30T01:05:01.564Z,97.2
2022-09-30T01:10:02.073Z,99.06
2022-09-30T01:15:02.205Z,99.34
2022-09-30T01:20:02.021Z,99.55
2022-09-30T01:25:02.221Z,99.4
2022-09-30T01:30:01.554Z,99.19
2022-09-30T01:35:01.335Z,99.25
2022-09-30T01:40:01.314Z,97.74
2022-09-30T01:45:02.110Z,97.92
2022-09-30T01:50:02.047Z,100.33
2022-09-30T01:55:01.717Z,99.87
2022-09-30T02:00:02.240Z,100
2022-09-30T02:05:02.064Z,98.16
2022-09-30T02:10:01.285Z,100.11
2022-09-30T02:15:01.349Z,98.79
2022-09-30T02:20:01.392Z,98.92
2022-09-30T02:25:02.243Z,98.74
2022-09-30T02:30:01.725Z,98.74
2022-09-30T02:35:01.861Z,98.62
2022-09-30T02:40:02.218Z,98.4
2022-09-30T02:45:01.616Z,98.43
2022-09-30T02:50:01.471Z,98.22
2022-09-30T02:55:02.067Z,98.22
2022-09-30T03:00:03.408Z,98.61
2022-09-30T03:05:01.798Z,98.5
2022-09-30T03:10:01.367Z,98.63
2022-09-30T03:15:02.194Z,98.27
2022-09-30T03:20:01.765Z,98.77
2022-09-30T03:25:01.464Z,98.34
2022-09-30T03:30:01.774Z,98.15
2022-09-30T03:35:01.456Z,98.32
2022-09-30T03:40:02.238Z,98.6
2022-09-30T03:45:01.323Z,99.13
2022-09-30T03:50:01.485Z,99.1
2022-09-30T03:55:01.435Z,98.83
2022-09-30T04:00:01.661Z,98.31
2022-09-30T04:05:02.112Z,98.71
2022-09-30T04:10:02.194Z,98.63
2022-09-30T04:15:01.628Z,98.37
2022-09-30T04:20:02.017Z,98.43
2022-09-30T04:25:01.848Z,97.9
2022-09-30T04:30:01.651Z,98.58
2022-09-30T04:35:01.443Z,98.8
2022-09-30T04:40:02.185Z,98.61
2022-09-30T04:45:02.082Z,98.32
2022-09-30T04:50:01.574Z,98.74
2022-09-30T04:55:01.450Z,98.82
2022-09-30T05:00:01.344Z,98.72
2022-09-30T05:05:01.814Z,98.44
2022-09-30T05:10:01.305Z,98.29
2022-09-30T05:15:01.894Z,98.37
2022-09-30T05:20:01.398Z,98.27
2022-09-30T05:25:01.419Z,98.36
2022-09-30T05:30:01.999Z,100.15
2022-09-30T05:35:01.417Z,100.23
2022-09-30T05:40:01.997Z,100.18
2022-09-30T05:45:01.376Z,100.26
2022-09-30T05:50:01.835Z,98.33
2022-09-30T05:55:01.693Z,98.6
2022-09-30T06:00:02.168Z,98.21
2022-09-30T06:05:01.518Z,98
2022-09-30T06:10:01.530Z,98.05
2022-09-30T06:15:01.395Z,99.98
2022-09-30T06:20:01.928Z,100.06
2022-09-30T06:25:01.668Z,98.01
2022-09-30T06:30:01.952Z,97.95
2022-09-30T06:35:01.993Z,97.82
2022-09-30T06:40:01.975Z,97.86
2022-09-30T06:45:01.561Z,97.79
2022-09-30T06:50:01.536Z,97.08
2022-09-30T06:55:01.850Z,98.71
2022-09-30T07:00:01.972Z,98.24
2022-09-30T07:05:02.150Z,98.63
2022-09-30T07:10:01.560Z,97.58
2022-09-30T07:15:02.196Z,96.6
2022-09-30T07:20:01.638Z,95.84
2022-09-30T07:25:02.059Z,95.05
2022-09-30T07:30:12.838Z,92.8
2022-09-30T07:35:02.233Z,92.7
2022-09-30T07:40:02.203Z,91.71
2022-09-30T07:45:01.685Z,90.7
2022-09-30T07:50:01.971Z,91.57
2022-09-30T07:55:02.033Z,91.96
2022-09-30T08:00:17.041Z,91.55
2022-09-30T08:05:01.699Z,92.45
2022-09-30T08:10:01.769Z,93.09
2022-09-30T08:15:02.123Z,91.82
2022-09-30T08:20:01.761Z,89.15
2022-09-30T08:25:01.605Z,89.07
2022-09-30T08:30:04.792Z,87.04
2022-09-30T08:35:01.722Z,85.66
2022-09-30T08:40:02.007Z,85.59
2022-09-30T08:45:02.195Z,85.79
2022-09-30T08:50:02.222Z,86.11
2022-09-30T08:55:01.572Z,86.7
2022-09-30T09:00:01.300Z,87.78
2022-09-30T09:05:01.730Z,89.61
2022-09-30T09:10:02.208Z,87.38
2022-09-30T09:15:01.477Z,87.98
2022-09-30T09:20:02.351Z,85.89
2022-09-30T09:25:01.579Z,85.57
2022-09-30T09:30:01.350Z,81.15
2022-09-30T09:35:01.368Z,79.69
2022-09-30T09:40:07.099Z,82.95
2022-09-30T09:45:01.466Z,81.4
2022-09-30T09:50:01.363Z,80.31
2022-09-30T09:55:01.895Z,77.03
2022-09-30T10:00:02.293Z,76.22
2022-09-30T10:05:01.462Z,78.35
2022-09-30T10:10:02.228Z,74.9
2022-09-30T10:15:01.904Z,74.02
2022-09-30T10:20:01.359Z,75.1
2022-09-30T10:25:01.888Z,73.46
2022-09-30T10:30:01.429Z,72.39
2022-09-30T10:35:01.379Z,73.88
2022-09-30T10:40:01.598Z,73.76
2022-09-30T10:45:01.756Z,71.02
2022-09-30T10:50:02.197Z,68.31
2022-09-30T10:55:01.677Z,69.79
2022-09-30T11:00:01.403Z,69.91
2022-09-30T11:05:01.859Z,73.06
2022-09-30T11:10:01.595Z,74.02
2022-09-30T11:15:01.240Z,75.86
2022-09-30T11:20:01.859Z,75
2022-09-30T11:25:01.687Z,78.03
2022-09-30T11:30:02.298Z,77.18
2022-09-30T11:35:01.868Z,77.28
2022-09-30T11:40:02.010Z,71.4
2022-09-30T11:45:01.933Z,71.4
2022-09-30T11:50:01.492Z,75.95
2022-09-30T11:55:01.356Z,80.36
2022-09-30T12:00:02.088Z,80.67
2022-09-30T12:05:01.566Z,75.11
2022-09-30T12:10:01.584Z,72.21
2022-09-30T12:15:01.583Z,71.72
2022-09-30T12:20:02.109Z,75.98
2022-09-30T12:25:01.929Z,73.03
2022-09-30T12:30:01.965Z,77.29
2022-09-30T12:35:01.786Z,78.81
2022-09-30T12:40:01.666Z,73.88
2022-09-30T12:45:01.371Z,71.69
2022-09-30T12:50:01.942Z,71.47
2022-09-30T12:55:01.393Z,69.86
2022-09-30T13:00:01.437Z,63.27
2022-09-30T13:05:02.052Z,63.77
2022-09-30T13:10:02.044Z,68
2022-09-30T13:15:01.938Z,62.61
2022-09-30T13:20:01.627Z,66.11
2022-09-30T13:25:02.271Z,63.48
2022-09-30T13:30:01.716Z,61.12
2022-09-30T13:35:01.514Z,65.7
2022-09-30T13:40:02.196Z,67.57
2022-09-30T13:45:01.731Z,62.42
2022-09-30T13:50:01.690Z,67.12
2022-09-30T13:55:01.407Z,70.34
2022-09-30T14:00:02.208Z,69.66
2022-09-30T14:05:01.458Z,71.27
2022-09-30T14:10:06.885Z,60.66
2022-09-30T14:15:01.846Z,61.55
2022-09-30T14:20:01.936Z,69.72
2022-09-30T14:25:02.339Z,72.95
2022-09-30T14:30:01.875Z,70.38
2022-09-30T14:35:01.554Z,69.41
2022-09-30T14:40:01.491Z,66.67
2022-09-30T14:45:01.525Z,63.5
2022-09-30T14:50:01.566Z,68.82
2022-09-30T14:55:01.779Z,69.41
2022-09-30T15:00:01.309Z,64.88
2022-09-30T15:05:02.128Z,68.87
2022-09-30T15:10:01.949Z,70.77
2022-09-30T15:15:01.880Z,68.96
2022-09-30T15:20:01.710Z,67.05
2022-09-30T15:25:01.323Z,71.18
2022-09-30T15:30:01.577Z,65.08
2022-09-30T15:35:01.847Z,66.49
2022-09-30T15:40:01.746Z,71.63
2022-09-30T15:45:02.127Z,71.14
2022-09-30T15:50:01.823Z,69.49
2022-09-30T15:55:01.459Z,70.23
2022-09-30T16:00:01.842Z,73.32
2022-09-30T16:05:01.351Z,70.3
2022-09-30T16:10:02.003Z,68.5
2022-09-30T16:15:01.284Z,69.56
2022-09-30T16:20:02.133Z,67.14
2022-09-30T16:25:01.390Z,67
2022-09-30T16:30:01.251Z,71.19
2022-09-30T16:35:01.314Z,69.37
2022-09-30T16:40:01.724Z,71.58
2022-09-30T16:45:01.480Z,71.52
2022-09-30T16:50:01.444Z,69.67
2022-09-30T16:55:02.239Z,70.63
2022-09-30T17:00:02.002Z,70.44
2022-09-30T17:05:01.410Z,72.02
2022-09-30T17:10:01.668Z,72.77
2022-09-30T17:15:01.840Z,73.23
2022-09-30T17:20:01.845Z,72.56
2022-09-30T17:25:01.268Z,71.98
2022-09-30T17:30:01.478Z,72.59
2022-09-30T17:35:01.884Z,72.47
2022-09-30T17:40:01.851Z,72.24
2022-09-30T17:45:01.882Z,74.07
2022-09-30T17:50:01.815Z,74.07
2022-09-30T18:00:01.249Z,73.32
2022-09-30T18:05:01.710Z,73.41
2022-09-30T18:10:01.505Z,72.89
2022-09-30T18:15:02.193Z,73.01
2022-09-30T18:20:01.704Z,72.67
2022-09-30T18:25:01.735Z,72.61
2022-09-30T18:30:01.668Z,72.37
2022-09-30T18:35:01.652Z,72.5
2022-09-30T18:40:01.668Z,72.45
2022-09-30T18:45:01.724Z,73.28
2022-09-30T18:50:01.633Z,73.37
2022-09-30T18:55:01.515Z,74.17
2022-09-30T19:00:01.530Z,75.04
2022-09-30T19:05:01.762Z,75.35
2022-09-30T19:10:01.972Z,75.96
2022-09-30T19:15:01.772Z,76.61
2022-09-30T19:20:01.765Z,77.21
2022-09-30T19:25:02.076Z,76.95
2022-09-30T19:30:01.392Z,77.13
2022-09-30T19:35:06.081Z,77.69
2022-09-30T19:40:13.924Z,77.99
2022-09-30T19:45:01.419Z,78.22
2022-09-30T19:50:02.081Z,77.97
2022-09-30T19:55:12.520Z,77.96
2022-09-30T20:00:05.133Z,78.17
2022-09-30T20:05:01.831Z,78.43
2022-09-30T20:10:01.526Z,78.73
2022-09-30T20:15:01.857Z,79.31
2022-09-30T20:20:01.385Z,79.77
2022-09-30T20:25:01.783Z,79.9
2022-09-30T20:30:01.446Z,80.05
2022-09-30T20:35:01.894Z,79.83
2022-09-30T20:40:02.203Z,79.9
2022-09-30T20:45:01.444Z,79.86
2022-09-30T20:50:01.794Z,79.9
2022-09-30T20:55:01.766Z,80.3
2022-09-30T21:00:01.552Z,80.41
2022-09-30T21:05:02.154Z,79.91
2022-09-30T21:10:01.675Z,79.36
2022-09-30T21:15:02.172Z,79.19
2022-09-30T21:20:02.239Z,79.15
2022-09-30T21:25:01.889Z,79.16
2022-09-30T21:30:01.775Z,79.35
2022-09-30T21:35:01.750Z,79.87
2022-09-30T21:40:01.554Z,80.77
2022-09-30T21:45:01.323Z,81.5
2022-09-30T21:50:01.436Z,81.77
2022-09-30T21:55:02.186Z,81.62
2022-09-30T22:00:01.784Z,81.48
2022-09-30T22:05:01.433Z,81.37
2022-09-30T22:10:02.037Z,81.47
2022-09-30T22:15:01.999Z,81.64
2022-09-30T22:20:01.819Z,81.86
2022-09-30T22:25:01.511Z,81.99
2022-09-30T22:30:01.742Z,81.97
2022-09-30T22:35:01.707Z,82.27
2022-09-30T22:40:01.406Z,82.11
2022-09-30T22:45:01.966Z,82.03
2022-09-30T22:50:01.505Z,82.21
2022-09-30T22:55:01.361Z,82.63
2022-09-30T23:00:01.360Z,82.91
2022-09-30T23:05:01.800Z,83.16
2022-09-30T23:10:02.235Z,83.16
2022-09-30T23:15:01.732Z,83.12
2022-09-30T23:20:02.168Z,83.1
2022-09-30T23:25:01.666Z,83.08
2022-09-30T23:30:01.905Z,82.59
2022-09-30T23:35:02.165Z,82.53
2022-09-30T23:40:01.907Z,82.39
2022-09-30T23:45:02.183Z,82.01
2022-09-30T23:50:01.913Z,81.76
2022-09-30T23:55:02.027Z,81.78
